Time;durP1;ratioP1;P1;durP2;ratioP2;P2;SDS_P1;SDS_P2;PMS_P1;PMS_P2;Temp;Humidity;BMP_temperature;BMP_pressure;BME280_temperature;BME280_humidity;BME280_pressure;Samples;Min_cycle;Max_cycle;Signal;HPM_P1;HPM_P2
2022/08/12 00:43:55;;;;;;;3.72;3.42;;;16.30;92.60;;;17.20;58.50;98097.59;5189454;28;20214;-79
2022/08/12 00:46:48;;;;;;;5.82;3.30;;;16.30;92.90;;;17.14;58.69;98102.50;5190143;28;20209;-78
2022/08/12 00:49:23;;;;;;;3.95;3.65;;;16.20;93.00;;;17.07;58.67;98104.88;5187560;28;20195;-77
2022/08/12 00:52:08;;;;;;;3.85;3.03;;;16.20;93.50;;;17.18;58.72;98109.56;5197892;28;20202;-79
2022/08/12 00:54:45;;;;;;;3.92;3.63;;;16.20;93.20;;;17.09;58.45;98100.66;5192392;28;20599;-78
2022/08/12 00:57:24;;;;;;;4.20;3.90;;;16.20;93.10;;;17.09;58.44;98108.41;5198349;28;20213;-79
2022/08/12 01:00:00;;;;;;;4.28;3.97;;;16.20;93.10;;;17.03;58.55;98109.91;5195019;28;20202;-78
2022/08/12 01:02:35;;;;;;;4.22;3.83;;;16.10;93.00;;;17.07;58.83;98102.31;5194166;28;20202;-78
2022/08/12 01:13:49;;;;;;;3.97;3.63;;;16.00;93.40;;;17.01;58.58;98112.41;5189808;28;20219;-77
2022/08/12 01:16:23;;;;;;;3.80;3.60;;;16.10;93.30;;;16.93;59.29;98119.00;5193921;28;20198;-78
2022/08/12 01:18:59;;;;;;;3.70;3.50;;;16.00;93.60;;;16.93;59.07;98112.97;5190637;28;20253;-78
2022/08/12 01:21:57;;;;;;;4.05;3.75;;;16.10;93.80;;;16.96;59.74;98108.78;5189293;28;20211;-78
2022/08/12 01:25:00;;;;;;;4.28;3.88;;;16.10;94.10;;;16.94;59.88;98104.38;5186944;28;20373;-78
2022/08/12 01:27:38;;;;;;;3.90;3.60;;;16.00;94.50;;;16.90;60.13;98111.16;5180189;28;20206;-78
2022/08/12 01:30:15;;;;;;;3.75;3.45;;;16.00;94.60;;;16.82;60.81;98102.25;5190134;28;20206;-79
2022/08/12 01:32:49;;;;;;;4.00;3.53;;;15.90;94.90;;;16.84;60.76;98101.47;5190067;28;20221;-78
2022/08/12 01:35:24;;;;;;;3.50;3.20;;;15.90;95.30;;;16.78;61.12;98095.22;5188936;28;20225;-78
2022/08/12 01:38:04;;;;;;;4.15;3.85;;;15.90;95.80;;;16.74;61.02;98096.78;5194381;28;20233;-78
2022/08/12 01:40:43;;;;;;;4.03;3.67;;;15.70;95.60;;;16.75;61.52;98092.50;5195299;28;20221;-79
2022/08/12 01:43:23;;;;;;;3.90;3.70;;;15.80;95.70;;;16.70;61.20;98100.06;5192722;28;20225;-78
2022/08/12 01:46:07;;;;;;;4.40;4.10;;;15.80;95.70;;;16.73;60.87;98099.31;5187484;28;20642;-78
2022/08/12 01:49:00;;;;;;;4.22;3.83;;;15.70;95.50;;;16.65;61.52;98097.34;5188625;28;20207;-77
2022/08/12 01:51:41;;;;;;;4.55;4.15;;;15.70;95.90;;;16.53;61.85;98095.97;5187309;28;20378;-79
2022/08/12 01:54:42;;;;;;;4.18;3.88;;;15.50;96.20;;;16.49;61.91;98095.00;5189903;28;20234;-78
2022/08/12 01:57:24;;;;;;;3.95;3.75;;;15.40;96.30;;;16.46;62.38;98094.88;5189981;28;20249;-78
2022/08/12 02:00:19;;;;;;;4.40;4.03;;;15.40;96.70;;;16.27;62.45;98093.28;5180648;28;20310;-79
2022/08/12 02:03:23;;;;;;;4.03;3.72;;;15.40;96.70;;;16.34;62.51;98089.25;5193037;28;20225;-78
2022/08/12 02:12:04;;;;;;;4.30;4.00;;;15.40;96.40;;;16.29;62.94;98085.63;5191524;28;20203;-78
2022/08/12 02:14:52;;;;;;;4.00;3.60;;;15.40;96.90;;;16.27;62.97;98089.84;5187742;28;20222;-79
2022/08/12 02:17:48;;;;;;;4.25;4.03;;;15.30;97.10;;;16.20;63.57;98089.59;5191535;28;20225;-78
2022/08/12 02:20:38;;;;;;;4.07;3.78;;;15.20;97.50;;;16.21;63.30;98081.03;5197473;28;20225;-78
2022/08/12 02:23:26;;;;;;;4.30;3.90;;;15.30;97.50;;;16.15;63.58;98091.13;5194331;28;20230;-78
2022/08/12 02:26:05;;;;;;;4.10;3.80;;;15.20;97.60;;;16.13;63.69;98089.31;5195787;28;20218;-78
2022/08/12 02:28:38;;;;;;;4.40;4.00;;;15.20;97.80;;;16.08;64.01;98084.00;5198240;28;20252;-79
2022/08/12 02:31:14;;;;;;;4.70;4.30;;;15.20;98.00;;;16.04;63.83;98076.06;5201045;28;20198;-78
2022/08/12 02:33:48;;;;;;;4.22;3.92;;;15.10;98.10;;;16.01;64.23;98079.41;5192868;28;20711;-78
2022/08/12 02:36:21;;;;;;;4.82;4.43;;;15.10;98.30;;;16.05;63.89;98080.38;5195305;28;20233;-79
2022/08/12 02:38:58;;;;;;;4.50;4.20;;;15.10;98.10;;;15.99;64.26;98081.03;5202303;28;20795;-79
2022/08/12 02:41:35;;;;;;;4.43;4.07;;;14.90;98.40;;;15.88;64.45;98066.81;5195534;28;20199;-79
2022/08/12 02:44:10;;;;;;;4.28;4.00;;;14.90;98.70;;;15.85;64.98;98067.63;5198840;28;20584;-77
2022/08/12 02:46:49;;;;;;;4.53;4.22;;;14.90;98.80;;;15.84;64.91;98064.97;5202499;28;20235;-79
2022/08/12 02:49:30;;;;;;;4.63;4.22;;;14.90;99.00;;;15.82;64.83;98061.44;5206434;28;20242;-78
2022/08/12 02:52:04;;;;;;;4.35;4.05;;;14.80;98.80;;;15.82;65.09;98061.44;5208497;28;20280;-79
2022/08/12 02:54:39;;;;;;;5.32;4.50;;;14.80;99.00;;;15.77;65.14;98057.00;5204087;28;20225;-78
2022/08/12 02:57:15;;;;;;;4.18;3.72;;;14.80;99.10;;;15.80;65.14;98063.09;5191733;28;20278;-78
2022/08/12 02:59:49;;;;;;;5.00;4.70;;;14.90;99.20;;;15.76;65.31;98062.94;5191797;28;20226;-78
2022/08/12 03:02:30;;;;;;;4.45;4.15;;;14.80;99.40;;;15.72;65.66;98055.91;5189148;28;20226;-78
2022/08/12 03:05:05;;;;;;;4.93;4.45;;;14.80;99.50;;;15.67;65.81;98061.69;5195015;28;20254;-78
2022/08/12 03:07:46;;;;;;;4.72;4.35;;;14.70;99.50;;;15.56;66.29;98061.22;5190560;28;20299;-78
2022/08/12 03:10:39;;;;;;;4.60;4.20;;;14.60;99.80;;;15.61;65.45;98067.47;5190632;28;20614;-78
2022/08/12 03:13:17;;;;;;;4.65;4.25;;;14.50;99.70;;;15.47;66.21;98063.44;5189679;28;20222;-79
2022/08/12 03:15:51;;;;;;;4.78;4.47;;;14.50;99.90;;;15.40;66.23;98071.75;5196505;28;20210;-78
2022/08/12 03:18:31;;;;;;;5.10;4.70;;;14.40;99.90;;;15.31;67.17;98062.81;5203399;28;20202;-79
2022/08/12 03:21:05;;;;;;;4.60;4.30;;;14.30;99.90;;;15.31;67.28;98072.25;5205413;28;20206;-80
2022/08/12 03:23:41;;;;;;;4.88;4.47;;;14.40;99.90;;;15.34;67.08;98067.22;5192004;28;20619;-79
2022/08/12 03:26:15;;;;;;;5.22;4.80;;;14.40;99.90;;;15.35;66.76;98068.09;5198546;28;20330;-78
2022/08/12 03:28:52;;;;;;;5.45;5.07;;;14.30;99.90;;;15.31;66.98;98064.53;5196511;28;20206;-78
2022/08/12 03:31:31;;;;;;;4.60;4.30;;;14.30;99.90;;;15.29;66.69;98063.56;5195370;28;20265;-79
2022/08/12 03:34:09;;;;;;;5.07;4.65;;;14.30;99.90;;;15.25;67.38;98061.66;5197366;28;20576;-78
2022/08/12 03:36:42;;;;;;;5.30;4.90;;;14.20;99.90;;;15.13;67.86;98066.31;5198040;28;20260;-77
2022/08/12 03:39:20;;;;;;;5.25;4.85;;;14.20;99.90;;;15.07;67.85;98061.78;5198194;28;20699;-77
2022/08/12 03:42:22;;;;;;;5.05;4.75;;;14.10;99.90;;;14.99;68.39;98073.44;5196088;28;20206;-78
2022/08/12 04:02:27;;;;;;;5.18;4.78;;;13.80;99.90;;;14.82;69.22;98081.31;5200228;28;20202;-78
2022/08/12 04:05:01;;;;;;;5.20;4.88;;;13.80;99.90;;;14.83;68.77;98080.50;5194640;28;20226;-78
2022/08/12 04:07:37;;;;;;;4.93;4.53;;;13.80;99.90;;;14.82;69.31;98081.31;5201894;28;20219;-77
2022/08/12 04:13:14;;;;;;;5.47;5.07;;;13.80;99.90;;;14.88;68.72;98080.72;5194065;28;20588;-78
2022/08/12 04:13:24;;;;;;;5.20;4.85;;;13.90;99.90;;;14.84;69.32;98083.94;5196254;28;20260;-77
2022/08/12 04:16:00;;;;;;;5.10;4.70;;;13.90;99.90;;;14.81;68.70;98079.53;5191270;28;20207;-78
2022/08/12 04:18:35;;;;;;;5.40;5.00;;;13.90;99.90;;;14.78;68.64;98083.69;5210322;28;20202;-79
2022/08/12 04:21:09;;;;;;;5.30;4.97;;;13.80;99.90;;;14.71;69.95;98076.50;5215425;28;20218;-79
2022/08/12 04:23:44;;;;;;;5.28;4.97;;;13.70;99.90;;;14.68;69.34;98074.69;5204806;28;20229;-79
2022/08/12 04:26:20;;;;;;;4.82;4.53;;;13.60;99.90;;;14.65;69.43;98082.28;5207724;28;20197;-77
2022/08/12 04:28:57;;;;;;;6.57;5.97;;;13.70;99.90;;;14.61;69.77;98072.63;5191576;28;20206;-78
2022/08/12 04:31:32;;;;;;;5.30;4.90;;;13.60;99.90;;;14.62;70.09;98082.09;5206342;28;20194;-78
2022/08/12 04:34:06;;;;;;;6.05;5.47;;;13.70;99.90;;;14.61;69.86;98080.34;5195940;28;20226;-78
2022/08/12 04:36:41;;;;;;;5.03;4.63;;;13.60;99.90;;;14.59;69.88;98079.41;5200719;28;20201;-77
2022/08/12 04:39:16;;;;;;;5.05;4.70;;;13.60;99.90;;;14.66;69.82;98083.16;5190816;28;20234;-78
2022/08/12 04:41:49;;;;;;;4.88;4.40;;;13.60;99.90;;;14.64;69.34;98080.50;5189092;28;20202;-76
2022/08/12 04:44:32;;;;;;;5.55;5.15;;;13.70;99.90;;;14.67;70.62;98083.19;5191829;28;20233;-77
2022/08/12 04:47:05;;;;;;;5.03;4.70;;;13.70;99.90;;;14.69;70.06;98084.16;5190818;28;20341;-77
2022/08/12 04:49:39;;;;;;;6.30;4.88;;;13.70;99.90;;;14.63;69.61;98083.88;5193280;28;20199;-78
2022/08/12 04:52:13;;;;;;;5.03;4.72;;;13.60;99.90;;;14.83;69.48;98084.78;5181405;28;20214;-78
2022/08/12 04:54:48;;;;;;;5.53;5.03;;;13.70;99.90;;;14.72;69.59;98094.59;5188996;28;20223;-77
2022/08/12 04:57:21;;;;;;;5.30;4.90;;;13.70;99.90;;;14.64;69.10;98091.66;5186764;28;20240;-78
2022/08/12 04:59:54;;;;;;;6.18;5.68;;;13.70;99.90;;;14.63;69.29;98083.88;5196116;28;20242;-78
2022/08/12 05:02:28;;;;;;;6.05;5.47;;;13.70;99.90;;;14.49;70.17;98085.81;5191133;28;20217;-78
2022/08/12 05:05:03;;;;;;;5.03;4.65;;;13.70;99.90;;;14.61;69.65;98088.06;5206394;28;20222;-78
2022/08/12 05:07:36;;;;;;;6.30;5.80;;;13.70;99.90;;;14.71;69.90;98085.13;5198730;28;20244;-78
2022/08/12 05:10:28;;;;;;;6.18;5.68;;;13.90;99.90;;;14.85;69.41;98081.47;5192416;28;20245;-78
2022/08/12 05:13:10;;;;;;;5.38;4.97;;;14.10;99.90;;;15.00;68.87;98075.22;5202149;28;20222;-78
2022/08/12 05:15:44;;;;;;;5.30;4.93;;;14.20;99.90;;;15.12;68.93;98075.72;5187277;28;20222;-77
2022/08/12 05:18:39;;;;;;;5.97;5.47;;;14.40;99.90;;;15.30;68.83;98084.22;5195199;28;20645;-79
2022/08/12 05:21:17;;;;;;;5.13;4.80;;;14.50;99.90;;;15.49;68.48;98073.00;5188754;28;20218;-78
2022/08/12 05:23:51;;;;;;;6.10;5.60;;;14.60;99.90;;;15.67;67.76;98080.59;5192768;28;20233;-78
2022/08/12 05:26:26;;;;;;;5.10;4.70;;;14.80;99.90;;;16.03;67.20;98088.06;5194598;28;20316;-78
2022/08/12 05:28:59;;;;;;;5.70;5.20;;;15.10;99.90;;;16.66;64.90;98083.59;5190672;28;20207;-78
2022/08/12 05:31:33;;;;;;;5.45;4.97;;;15.90;99.40;;;17.54;62.04;98079.81;5192223;28;20202;-78
2022/08/12 05:34:20;;;;;;;4.93;4.53;;;16.90;96.70;;;18.38;58.60;98089.38;5196527;28;20218;-78
2022/08/12 05:36:58;;;;;;;5.07;4.68;;;17.60;94.50;;;19.08;56.12;98092.25;5190470;28;20209;-78
2022/08/12 05:39:31;;;;;;;4.80;4.50;;;18.20;93.30;;;19.84;54.02;98083.00;5187485;28;20201;-77
2022/08/12 05:42:07;;;;;;;4.78;4.35;;;18.90;91.80;;;20.53;51.55;98089.78;5188108;28;20218;-79
2022/08/12 05:44:40;;;;;;;5.22;4.82;;;19.50;89.90;;;20.89;50.04;98081.91;5178494;28;20296;-79
2022/08/12 05:47:13;;;;;;;4.53;4.22;;;19.70;88.10;;;21.30;49.11;98091.31;5188618;28;20280;-78
2022/08/12 05:49:47;;;;;;;5.20;4.82;;;20.10;86.90;;;21.75;48.52;98090.41;5191534;28;20295;-79
2022/08/12 05:52:20;;;;;;;4.88;4.50;;;20.20;86.10;;;22.04;47.25;98091.75;5198125;28;20202;-79
2022/08/12 05:54:53;;;;;;;4.50;4.10;;;20.40;85.30;;;22.31;46.50;98090.41;5192041;28;20249;-79
2022/08/12 05:57:31;;;;;;;4.50;4.10;;;20.80;83.40;;;22.59;45.48;98098.63;5188311;28;20202;-79
2022/08/12 06:00:08;;;;;;;5.32;4.65;;;20.80;82.70;;;22.86;45.01;98093.78;5186264;28;20664;-79
2022/08/12 06:02:42;;;;;;;4.07;3.78;;;21.00;82.60;;;23.42;43.58;98089.19;5197041;28;20201;-80
2022/08/12 06:05:15;;;;;;;4.07;3.67;;;21.50;80.10;;;23.62;43.11;98087.63;5201138;28;20199;-80
2022/08/12 06:07:49;;;;;;;4.30;3.90;;;21.50;79.70;;;23.87;42.51;98090.50;5198740;28;20634;-80
2022/08/12 06:10:36;;;;;;;4.57;4.18;;;21.60;80.00;;;24.35;41.43;98094.28;5195810;28;20256;-78
2022/08/12 06:13:13;;;;;;;4.38;4.07;;;21.90;78.60;;;24.69;41.03;98093.63;5190126;28;20214;-79
2022/08/12 06:16:01;;;;;;;3.88;3.58;;;22.20;78.40;;;25.08;39.98;98091.19;5182004;28;20207;-78
2022/08/12 06:18:34;;;;;;;4.50;3.63;;;22.60;77.40;;;25.17;40.19;98092.09;5189615;28;20202;-80
2022/08/12 06:21:08;;;;;;;4.28;3.97;;;22.60;76.90;;;25.54;38.60;98094.78;5189573;28;20771;-80
2022/08/12 06:23:42;;;;;;;4.43;4.03;;;22.70;75.30;;;25.79;38.68;98097.44;5195328;28;20234;-80
2022/08/12 06:26:19;;;;;;;4.50;4.10;;;23.00;75.50;;;26.07;37.89;98098.34;5188014;28;20633;-79
2022/08/12 06:28:55;;;;;;;4.90;4.40;;;23.10;74.30;;;26.50;36.91;98099.19;5188679;28;20238;-79
2022/08/12 06:31:28;;;;;;;5.30;4.00;;;23.50;73.50;;;26.68;36.56;98103.50;5187806;28;20198;-78
2022/08/12 06:34:02;;;;;;;4.75;3.80;;;23.60;72.50;;;26.73;36.03;98100.88;5189766;28;20214;-80
2022/08/12 06:36:55;;;;;;;4.20;3.53;;;23.70;71.60;;;26.33;37.00;98100.06;5187230;28;20352;-80
2022/08/12 06:39:29;;;;;;;6.90;3.80;;;23.70;71.70;;;26.65;35.94;98098.25;5191143;28;20225;-80
2022/08/12 06:45:07;;;;;;;4.43;3.88;;;24.30;68.50;;;27.13;33.97;98098.06;5192606;28;20225;-83
2022/08/12 06:47:44;;;;;;;3.90;3.58;;;24.60;66.90;;;27.78;33.96;98091.50;5196509;28;20205;-81
2022/08/12 06:50:18;;;;;;;4.32;3.58;;;25.10;66.60;;;27.97;33.38;98097.53;5197214;28;20200;-80
2022/08/12 06:52:51;;;;;;;3.58;3.08;;;25.40;66.10;;;28.16;34.19;98094.72;5189071;28;20664;-81
2022/08/12 06:55:24;;;;;;;3.53;3.22;;;25.80;66.30;;;28.62;32.71;98099.56;5193763;28;20233;-81
2022/08/12 06:58:00;;;;;;;3.58;3.30;;;26.10;63.80;;;28.76;31.46;98092.38;5186983;28;20214;-82
2022/08/12 07:00:45;;;;;;;3.15;2.95;;;26.10;62.90;;;29.13;31.32;98084.94;5199402;28;20222;-82
2022/08/12 07:03:21;;;;;;;3.78;3.00;;;26.50;62.30;;;29.45;31.08;98086.22;5202001;28;20229;-82
2022/08/12 07:05:57;;;;;;;3.88;3.47;;;27.00;60.90;;;29.74;30.88;98085.81;5197159;28;20193;-82
2022/08/12 07:08:33;;;;;;;3.60;3.30;;;27.30;60.90;;;29.56;30.71;98071.13;5192382;28;20925;-81
2022/08/12 07:11:10;;;;;;;4.43;3.33;;;27.10;60.30;;;29.56;30.33;98081.66;5190502;28;20815;-80
2022/08/12 07:13:51;;;;;;;3.33;3.03;;;27.20;60.30;;;29.76;30.39;98080.50;5189327;28;20276;-82
2022/08/12 07:16:52;;;;;;;3.05;2.85;;;27.30;60.00;;;29.73;29.90;98084.06;5190983;28;20209;-81
2022/08/12 07:19:26;;;;;;;3.65;2.88;;;27.40;59.20;;;29.70;30.68;98086.72;5195102;28;20744;-82
2022/08/12 07:22:17;;;;;;;4.25;2.63;;;27.50;59.70;;;30.17;29.25;98081.56;5191627;28;20243;-81
2022/08/12 07:25:29;;;;;;;3.45;2.88;;;28.00;58.40;;;30.11;29.56;98077.28;5187662;28;20230;-82
2022/08/12 07:27:45;;;;;;;4.30;2.53;;;27.90;58.60;;;30.35;29.30;98070.69;5194122;28;20202;-82
2022/08/12 07:30:18;;;;;;;3.00;2.80;;;27.90;58.90;;;30.95;28.22;98073.03;5193506;28;20210;-82
2022/08/12 07:32:53;;;;;;;3.03;2.45;;;28.20;58.20;;;31.22;27.80;98065.44;5187836;28;20225;-83
2022/08/12 07:35:33;;;;;;;4.43;2.70;;;28.50;56.70;;;31.64;27.21;98073.28;5182099;28;20190;-81
2022/08/12 07:38:26;;;;;;;2.38;2.17;;;28.80;56.50;;;31.82;26.92;98070.19;5181660;28;20264;-82
2022/08/12 07:41:09;;;;;;;2.70;2.40;;;29.20;56.30;;;32.03;25.88;98060.88;5187273;28;20229;-82
2022/08/12 07:43:50;;;;;;;2.83;2.40;;;29.60;55.30;;;32.31;25.99;98065.44;5184200;28;20709;-81
2022/08/12 07:46:29;;;;;;;3.40;2.50;;;29.50;55.00;;;32.26;25.83;98062.91;5190821;28;20232;-83
2022/08/12 07:49:08;;;;;;;4.38;2.70;;;29.60;54.50;;;32.41;25.27;98060.75;5186214;28;20582;-83
2022/08/12 07:51:42;;;;;;;2.95;2.60;;;29.70;54.40;;;32.73;25.16;98058.09;5184475;28;20229;-81
2022/08/12 07:54:16;;;;;;;3.47;2.20;;;29.80;54.00;;;32.69;25.95;98059.09;5185865;28;20230;-82
2022/08/12 07:56:49;;;;;;;3.17;2.50;;;29.80;54.70;;;32.67;25.55;98055.63;5188377;28;20257;-83
2022/08/12 07:59:22;;;;;;;2.85;2.65;;;30.10;53.80;;;32.70;25.31;98067.91;5186189;28;20245;-82
2022/08/12 08:01:59;;;;;;;2.85;2.38;;;30.20;53.90;;;32.48;24.80;98057.03;5190472;28;20262;-83
2022/08/12 08:07:28;;;;;;;2.50;2.30;;;29.60;53.10;;;31.65;25.97;98061.81;5189608;28;20226;-84
2022/08/12 08:10:09;;;;;;;2.47;2.22;;;29.90;53.00;;;30.70;26.68;98063.84;5189750;28;20194;-81
2022/08/12 08:12:57;;;;;;;3.28;2.50;;;29.50;53.40;;;30.50;27.81;98065.16;5183305;28;20205;-82
2022/08/12 08:15:33;;;;;;;2.58;2.38;;;29.10;54.80;;;30.82;27.57;98057.47;5181939;28;20198;-82
2022/08/12 08:18:27;;;;;;;4.43;2.63;;;29.60;53.90;;;30.65;27.63;98057.81;5191815;28;20237;-83
2022/08/12 08:21:03;;;;;;;3.13;2.67;;;29.40;53.90;;;30.93;27.46;98047.56;5191552;28;20201;-82
2022/08/12 08:26:31;;;;;;;2.35;2.25;;;29.40;53.30;;;29.60;28.20;98061.41;5181454;28;20206;-82
2022/08/12 08:29:04;;;;;;;4.72;2.70;;;28.60;53.50;;;29.53;27.63;98054.47;5187714;28;20226;-86
2022/08/12 08:31:42;;;;;;;2.95;2.30;;;28.50;53.30;;;28.69;28.77;98054.72;5186271;28;20711;-83
2022/08/12 08:34:19;;;;;;;2.85;2.22;;;28.60;53.00;;;29.31;27.72;98056.59;5181221;28;20308;-82
2022/08/12 08:37:14;;;;;;;2.78;2.58;;;28.40;53.50;;;29.26;28.02;98055.78;5181676;28;20198;-80
2022/08/12 08:39:49;;;;;;;2.90;2.60;;;28.40;53.20;;;29.50;28.60;98047.47;5184843;28;20240;-81
2022/08/12 08:42:39;;;;;;;2.70;2.50;;;28.90;54.00;;;29.75;28.41;98049.78;5184396;28;20615;-81
2022/08/12 08:45:12;;;;;;;5.63;2.30;;;29.20;53.80;;;29.42;27.79;98050.25;5186439;28;20229;-82
2022/08/12 08:47:46;;;;;;;2.67;2.30;;;28.90;52.50;;;29.88;27.28;98048.69;5188965;28;20206;-82
2022/08/12 08:50:20;;;;;;;2.83;2.60;;;29.20;52.60;;;30.14;27.72;98042.94;5178993;28;20209;-80
2022/08/12 08:52:54;;;;;;;2.50;2.30;;;29.60;52.10;;;30.38;26.51;98052.16;5188257;28;20201;-81
2022/08/12 08:55:28;;;;;;;2.58;2.30;;;29.80;51.70;;;29.78;26.80;98047.94;5182546;28;20293;-81
2022/08/12 08:58:21;;;;;;;2.22;2.13;;;29.50;51.10;;;29.49;26.68;98044.88;5185078;28;20232;-79
2022/08/12 09:00:55;;;;;;;4.05;2.40;;;29.20;51.30;;;29.53;27.49;98044.84;5182411;28;20293;-80
2022/08/12 09:03:29;;;;;;;3.00;2.75;;;29.10;51.50;;;28.79;28.02;98041.44;5183146;28;20230;-80
2022/08/12 09:06:22;;;;;;;2.60;2.30;;;28.40;52.30;;;29.12;28.34;98040.16;5184289;28;20311;-80
2022/08/12 09:09:13;;;;;;;2.60;2.40;;;28.60;52.80;;;29.12;27.27;98041.03;5181448;28;20201;-81
2022/08/12 09:14:57;;;;;;;3.20;2.55;;;28.70;51.70;;;28.94;28.24;98043.91;5180441;28;20222;-80
2022/08/12 09:17:32;;;;;;;2.50;2.30;;;28.50;52.40;;;29.16;27.53;98037.47;5183940;28;20308;-77
2022/08/12 09:20:26;;;;;;;2.53;2.30;;;28.70;52.60;;;29.16;28.10;98029.59;5182429;28;20257;-79
2022/08/12 09:23:04;;;;;;;2.60;2.40;;;28.80;52.20;;;29.38;26.72;98029.25;5182827;28;20275;-80
2022/08/12 09:26:01;;;;;;;2.45;2.25;;;29.10;51.00;;;29.55;27.98;98035.13;5184759;28;20543;-78
2022/08/12 09:28:36;;;;;;;2.30;2.10;;;29.20;52.00;;;29.71;27.17;98040.19;5184535;28;20205;-79
2022/08/12 09:31:10;;;;;;;2.55;2.00;;;29.20;51.10;;;29.84;25.86;98036.44;5188080;28;20217;-82
2022/08/12 09:34:03;;;;;;;2.90;2.20;;;29.50;50.20;;;29.81;26.40;98032.06;5189177;28;20222;-82
2022/08/12 09:36:56;;;;;;;2.85;1.95;;;29.40;50.70;;;30.12;25.40;98033.31;5183323;28;20202;-82
2022/08/12 09:39:34;;;;;;;2.35;2.15;;;29.80;49.60;;;29.96;25.72;98033.59;5182776;28;20653;-81
2022/08/12 09:45:37;;;;;;;2.13;2.03;;;29.50;49.40;;;29.16;25.85;98026.09;5187102;28;20201;-80
2022/08/12 09:48:31;;;;;;;2.10;1.98;;;28.90;49.10;;;29.14;26.94;98025.22;5186236;28;20202;-80
2022/08/12 09:51:08;;;;;;;2.70;2.30;;;28.60;50.60;;;28.56;27.03;98024.22;5187014;28;20210;-80
2022/08/12 09:53:53;;;;;;;2.80;2.22;;;28.00;51.20;;;28.80;26.82;98022.16;5178945;28;20233;-83
2022/08/12 09:56:47;;;;;;;2.85;2.10;;;28.40;51.10;;;28.81;26.90;98019.50;5188558;28;20205;-80
2022/08/12 09:59:38;;;;;;;2.35;2.10;;;28.50;50.30;;;28.97;27.05;98012.28;5183381;28;20210;-80
2022/08/12 10:02:36;;;;;;;2.28;2.10;;;28.70;50.60;;;28.89;27.13;98006.25;5187206;28;20232;-80
2022/08/12 10:05:22;;;;;;;2.35;1.95;;;28.40;50.70;;;29.10;27.32;98005.97;5185267;28;20210;-82
2022/08/12 10:08:17;;;;;;;2.25;2.05;;;28.60;51.10;;;29.52;26.87;98008.81;5186553;28;20228;-80
2022/08/12 10:13:55;;;;;;;1.98;1.88;;;28.80;49.50;;;29.04;26.29;98006.03;5184428;28;20218;-80
2022/08/12 10:16:31;;;;;;;2.72;2.10;;;28.80;49.60;;;29.18;26.30;97998.81;5194613;28;20326;-83
2022/08/12 10:19:14;;;;;;;2.60;2.40;;;28.60;50.70;;;29.38;26.55;97995.88;5189722;28;20201;-80
2022/08/12 10:21:51;;;;;;;2.85;2.13;;;29.00;50.40;;;29.45;27.04;97996.66;5181392;28;20229;-79
2022/08/12 10:24:29;;;;;;;2.35;2.00;;;29.00;50.80;;;29.08;25.57;98001.63;5185074;28;20230;-81
2022/08/12 10:29:55;;;;;;;2.50;2.10;;;28.70;48.80;;;29.04;26.11;97990.25;5183832;28;20205;-82
2022/08/12 10:32:58;;;;;;;2.17;2.08;;;28.70;49.30;;;29.34;25.20;98009.13;5186700;28;20236;-82
2022/08/12 10:35:34;;;;;;;3.08;2.08;;;28.90;49.30;;;28.98;25.70;97991.16;5182363;28;20206;-81
2022/08/12 10:38:16;;;;;;;2.35;2.10;;;28.50;49.60;;;28.99;26.25;97981.53;5182058;28;20766;-82
2022/08/12 10:44:21;;;;;;;1.95;1.85;;;28.30;50.00;;;28.73;25.81;97989.78;5182497;28;20328;-82
2022/08/12 10:46:57;;;;;;;3.55;2.15;;;28.30;49.40;;;28.41;26.55;97992.78;5189459;28;20205;-81
2022/08/12 10:49:35;;;;;;;2.65;2.13;;;27.90;49.60;;;28.37;26.52;97976.19;5180771;28;20872;-83
2022/08/12 10:52:30;;;;;;;2.10;2.00;;;27.90;49.90;;;28.74;26.39;97966.09;5184330;28;20676;-83
2022/08/12 10:55:23;;;;;;;3.08;2.05;;;28.40;49.50;;;28.89;25.27;97969.41;5185385;28;20683;-84
2022/08/12 10:57:58;;;;;;;2.20;2.00;;;28.60;48.80;;;28.95;26.29;97964.03;5188299;28;20687;-83
2022/08/12 11:00:51;;;;;;;3.38;2.50;;;28.50;49.70;;;28.95;25.77;97967.53;5190020;28;20198;-84
2022/08/12 11:03:44;;;;;;;2.20;2.00;;;28.60;49.30;;;29.17;25.59;97954.94;5192305;28;20232;-82
2022/08/12 11:06:46;;;;;;;2.45;2.10;;;28.70;49.40;;;29.32;25.70;97950.34;5189463;28;20205;-81
2022/08/12 11:09:41;;;;;;;2.72;2.20;;;28.80;49.40;;;29.18;26.30;97954.03;5185091;28;20201;-82
2022/08/12 11:12:40;;;;;;;2.47;2.28;;;28.70;49.80;;;28.82;26.63;97946.69;5186487;28;20202;-80
2022/08/12 11:15:32;;;;;;;2.25;1.80;;;28.40;50.00;;;28.68;26.44;97942.50;5185561;28;20702;-81
2022/08/12 11:18:26;;;;;;;3.45;2.13;;;28.10;50.10;;;28.61;26.36;97947.84;5186475;28;20285;-79
2022/08/12 11:20:59;;;;;;;2.70;2.10;;;28.10;49.70;;;28.59;26.70;97960.16;5185417;28;20240;-80
2022/08/12 11:23:39;;;;;;;3.00;1.98;;;28.10;50.80;;;28.59;26.66;97937.38;5179551;28;20317;-80
2022/08/12 11:26:12;;;;;;;2.50;2.20;;;28.00;51.00;;;28.85;26.66;97936.13;5184633;28;20206;-80
2022/08/12 11:28:46;;;;;;;3.33;2.10;;;28.30;50.20;;;28.75;27.31;97930.97;5189368;28;20676;-79
2022/08/12 11:31:37;;;;;;;3.00;2.20;;;28.30;50.90;;;28.71;27.29;97931.94;5179837;28;20234;-81
2022/08/12 11:34:30;;;;;;;2.92;2.40;;;28.30;50.60;;;28.26;27.35;97930.75;5182810;28;20322;-79
2022/08/12 11:37:24;;;;;;;2.58;2.10;;;27.90;50.90;;;28.28;27.00;97924.59;5182526;28;20682;-80
2022/08/12 11:40:00;;;;;;;2.60;2.13;;;27.70;50.80;;;28.51;27.43;97915.56;5183782;28;20212;-78
2022/08/12 11:42:33;;;;;;;2.15;1.95;;;27.80;51.30;;;28.58;26.74;97919.81;5179849;28;20230;-81
2022/08/12 11:45:09;;;;;;;2.88;2.38;;;28.00;50.70;;;28.79;26.36;97930.94;5188740;28;20355;-82
2022/08/12 11:47:42;;;;;;;1.92;1.73;;;28.30;50.20;;;28.95;26.85;97928.06;5190486;28;20197;-80
2022/08/12 11:50:15;;;;;;;2.95;2.20;;;28.40;50.20;;;28.91;27.01;97920.25;5187785;28;20209;-81
2022/08/12 11:52:52;;;;;;;2.30;2.10;;;28.40;50.90;;;29.00;26.74;97920.09;5192149;28;20288;-80
2022/08/12 11:55:31;;;;;;;2.10;1.90;;;28.50;50.40;;;29.15;26.82;97914.59;5182448;28;20202;-80
2022/08/12 11:58:05;;;;;;;3.80;1.98;;;28.50;50.50;;;28.52;26.52;97917.28;5194235;28;20198;-82
2022/08/12 12:00:58;;;;;;;2.45;2.20;;;28.00;50.20;;;28.51;26.98;97911.16;5193086;28;20202;-80
2022/08/12 12:03:52;;;;;;;2.25;2.05;;;27.90;50.90;;;28.49;27.13;97912.06;5193487;28;20226;-80
2022/08/12 12:06:26;;;;;;;2.50;2.30;;;27.80;51.20;;;28.33;27.53;97915.75;5191344;28;20193;-79
2022/08/12 12:09:00;;;;;;;2.70;2.03;;;27.60;51.30;;;28.39;27.20;97921.81;5188548;28;20210;-82
2022/08/12 12:11:34;;;;;;;3.63;2.10;;;27.60;50.90;;;28.30;27.56;97912.28;5184518;28;20636;-80
2022/08/12 12:14:21;;;;;;;2.20;2.00;;;27.50;51.50;;;28.11;27.39;97910.78;5186107;28;20225;-80
2022/08/12 12:17:11;;;;;;;2.28;2.05;;;27.50;51.00;;;28.28;26.86;97921.09;5186580;28;20248;-80
2022/08/12 12:19:44;;;;;;;3.63;2.13;;;27.50;50.80;;;28.14;26.89;97920.38;5185937;28;20693;-77
2022/08/12 12:22:18;;;;;;;3.10;2.10;;;27.50;50.20;;;27.95;27.07;97914.47;5188540;28;20292;-79
2022/08/12 12:24:59;;;;;;;3.05;2.20;;;27.30;50.80;;;27.99;26.70;97910.94;5188033;28;20224;-80
2022/08/12 12:27:52;;;;;;;3.30;2.30;;;27.30;50.20;;;28.05;26.89;97900.34;5190342;28;20210;-81
2022/08/12 12:30:39;;;;;;;3.05;2.05;;;27.50;50.30;;;28.28;26.91;97885.16;5182866;28;20207;-81
2022/08/12 12:33:27;;;;;;;3.00;2.45;;;27.80;50.60;;;28.82;26.37;97897.56;5183894;28;20233;-80
2022/08/12 12:36:20;;;;;;;2.17;1.85;;;28.20;50.10;;;28.94;26.78;97907.03;5178204;28;20198;-80
2022/08/12 12:39:02;;;;;;;2.63;1.98;;;28.30;50.30;;;28.84;26.48;97889.63;5189650;28;20305;-81
2022/08/12 12:41:38;;;;;;;3.08;1.88;;;28.40;50.10;;;28.82;26.23;97894.06;5188403;28;20201;-80
2022/08/12 12:44:33;;;;;;;2.08;1.98;;;28.30;50.20;;;28.50;26.19;97898.00;5186440;28;20312;-82
2022/08/12 12:47:15;;;;;;;3.35;2.05;;;28.00;49.70;;;28.67;25.92;97896.03;5183801;28;20221;-80
2022/08/12 12:50:01;;;;;;;1.80;1.70;;;28.00;49.90;;;29.03;25.88;97888.50;5200390;28;20201;-82
2022/08/12 12:52:38;;;;;;;2.75;2.10;;;28.40;49.10;;;29.00;26.11;97888.50;5191539;28;20402;-81
2022/08/12 12:55:15;;;;;;;2.28;2.05;;;28.40;49.20;;;28.83;26.29;97891.41;5196231;28;20205;-82